Terminal Aerodrome Forecast
Issued by NWS

Home | Current Version | Previous Version | Text Only | Print | Product List | Glossary Off
Versions: 1 2 3 4 5 6 7 8 9 10 11 12 13 14 15 16 17 18 19 20 21 22

000
FTUS43 KGRB 082058 AAB
TAFATW
TAF AMD
KATW 082058Z 0821/0918 28009G15KT P6SM BKN025
      TEMPO 0821/0901 -SHSN BKN035
     FM090100 24005KT 2SM -SN OVC025
     FM090300 30004KT 1SM -SN OVC012
      TEMPO 0903/0907 1/2SM SN OVC007
     FM090700 34007KT 6SM -SN OVC020
     FM091200 35012KT P6SM BKN035
     FM091600 34014G23KT P6SM BKN060=

USA.gov is the U.S. government's official web portal to all federal, state and local government web resources and services.